sensor_id;sensor_type;location;lat;lon;timestamp;temperature;humidity
5429;DHT22;2737;52.386;9.980;2023-08-24T00:01:26;17.40;99.90
5429;DHT22;2737;52.386;9.980;2023-08-24T00:03:53;17.50;99.90
5429;DHT22;2737;52.386;9.980;2023-08-24T00:06:20;17.40;99.90
5429;DHT22;2737;52.386;9.980;2023-08-24T00:08:47;17.50;99.90
5429;DHT22;2737;52.386;9.980;2023-08-24T00:11:14;17.40;99.90
5429;DHT22;2737;52.386;9.980;2023-08-24T00:13:41;17.50;99.90
5429;DHT22;2737;52.386;9.980;2023-08-24T00:16:12;17.40;99.90
5429;DHT22;2737;52.386;9.980;2023-08-24T00:18:40;17.50;99.90
5429;DHT22;2737;52.386;9.980;2023-08-24T00:21:08;17.50;99.90
5429;DHT22;2737;52.386;9.980;2023-08-24T00:23:35;17.50;99.90
5429;DHT22;2737;52.386;9.980;2023-08-24T00:26:02;17.50;99.90
5429;DHT22;2737;52.386;9.980;2023-08-24T00:28:29;17.50;99.90
5429;DHT22;2737;52.386;9.980;2023-08-24T00:30:56;17.40;99.90
5429;DHT22;2737;52.386;9.980;2023-08-24T00:33:23;17.40;99.90
5429;DHT22;2737;52.386;9.980;2023-08-24T00:35:51;17.40;99.90
5429;DHT22;2737;52.386;9.980;2023-08-24T00:38:18;17.40;99.90
5429;DHT22;2737;52.386;9.980;2023-08-24T00:40:45;17.40;99.90
5429;DHT22;2737;52.386;9.980;2023-08-24T00:43:13;17.40;99.90
5429;DHT22;2737;52.386;9.980;2023-08-24T00:45:40;17.40;99.90
5429;DHT22;2737;52.386;9.980;2023-08-24T00:48:07;17.40;99.90
5429;DHT22;2737;52.386;9.980;2023-08-24T00:50:35;17.30;99.90
5429;DHT22;2737;52.386;9.980;2023-08-24T00:53:03;17.30;99.90
5429;DHT22;2737;52.386;9.980;2023-08-24T00:55:30;17.30;99.90
5429;DHT22;2737;52.386;9.980;2023-08-24T00:57:58;17.30;99.90
5429;DHT22;2737;52.386;9.980;2023-08-24T01:24:04;17.10;99.90
5429;DHT22;2737;52.386;9.980;2023-08-24T01:26:40;17.10;99.90
5429;DHT22;2737;52.386;9.980;2023-08-24T01:29:08;17.00;99.90
5429;DHT22;2737;52.386;9.980;2023-08-24T01:31:35;16.90;99.90
5429;DHT22;2737;52.386;9.980;2023-08-24T01:34:03;16.80;99.90
5429;DHT22;2737;52.386;9.980;2023-08-24T01:36:30;16.80;99.90
5429;DHT22;2737;52.386;9.980;2023-08-24T01:39:02;16.80;99.90
5429;DHT22;2737;52.386;9.980;2023-08-24T01:41:35;16.80;99.90
5429;DHT22;2737;52.386;9.980;2023-08-24T01:44:06;16.70;99.90
5429;DHT22;2737;52.386;9.980;2023-08-24T01:46:35;16.80;99.90
5429;DHT22;2737;52.386;9.980;2023-08-24T01:49:03;16.80;99.90
5429;DHT22;2737;52.386;9.980;2023-08-24T01:51:32;16.80;99.90
5429;DHT22;2737;52.386;9.980;2023-08-24T01:54:00;16.70;99.90
5429;DHT22;2737;52.386;9.980;2023-08-24T01:56:27;16.70;99.90
5429;DHT22;2737;52.386;9.980;2023-08-24T01:58:54;16.80;99.90
5429;DHT22;2737;52.386;9.980;2023-08-24T02:01:24;16.80;99.90
5429;DHT22;2737;52.386;9.980;2023-08-24T02:03:51;16.80;99.90
5429;DHT22;2737;52.386;9.980;2023-08-24T02:06:18;16.70;99.90
5429;DHT22;2737;52.386;9.980;2023-08-24T02:08:45;16.70;99.90
5429;DHT22;2737;52.386;9.980;2023-08-24T02:11:12;16.60;99.90
5429;DHT22;2737;52.386;9.980;2023-08-24T02:13:39;16.60;99.90
5429;DHT22;2737;52.386;9.980;2023-08-24T02:16:08;16.60;99.90
5429;DHT22;2737;52.386;9.980;2023-08-24T02:18:36;16.50;99.90
5429;DHT22;2737;52.386;9.980;2023-08-24T02:21:07;16.40;99.90
5429;DHT22;2737;52.386;9.980;2023-08-24T02:23:36;16.30;99.90
5429;DHT22;2737;52.386;9.980;2023-08-24T02:26:03;16.30;99.90
5429;DHT22;2737;52.386;9.980;2023-08-24T02:28:31;16.20;99.90
5429;DHT22;2737;52.386;9.980;2023-08-24T02:31:00;16.20;99.90
5429;DHT22;2737;52.386;9.980;2023-08-24T02:33:28;16.20;99.90
5429;DHT22;2737;52.386;9.980;2023-08-24T02:35:57;16.10;99.90
5429;DHT22;2737;52.386;9.980;2023-08-24T02:38:24;16.00;99.90
5429;DHT22;2737;52.386;9.980;2023-08-24T02:41:00;15.90;99.90
5429;DHT22;2737;52.386;9.980;2023-08-24T02:43:28;15.90;99.90
5429;DHT22;2737;52.386;9.980;2023-08-24T02:45:59;15.90;99.90
5429;DHT22;2737;52.386;9.980;2023-08-24T02:48:29;15.90;99.90
5429;DHT22;2737;52.386;9.980;2023-08-24T02:50:59;15.80;99.90
5429;DHT22;2737;52.386;9.980;2023-08-24T02:53:26;15.80;99.90
5429;DHT22;2737;52.386;9.980;2023-08-24T02:55:54;15.80;99.90
5429;DHT22;2737;52.386;9.980;2023-08-24T02:58:21;15.90;99.90
5429;DHT22;2737;52.386;9.980;2023-08-24T03:00:48;15.90;99.90
5429;DHT22;2737;52.386;9.980;2023-08-24T03:03:15;15.90;99.90
5429;DHT22;2737;52.386;9.980;2023-08-24T03:05:54;16.00;99.90
5429;DHT22;2737;52.386;9.980;2023-08-24T03:08:23;16.00;99.90
5429;DHT22;2737;52.386;9.980;2023-08-24T03:10:50;16.00;99.90
5429;DHT22;2737;52.386;9.980;2023-08-24T03:13:17;15.90;99.90
5429;DHT22;2737;52.386;9.980;2023-08-24T03:15:45;15.90;99.90
5429;DHT22;2737;52.386;9.980;2023-08-24T03:18:12;15.90;99.90
5429;DHT22;2737;52.386;9.980;2023-08-24T03:20:40;15.90;99.90
5429;DHT22;2737;52.386;9.980;2023-08-24T03:23:07;15.90;99.90
5429;DHT22;2737;52.386;9.980;2023-08-24T03:25:37;15.90;99.90
5429;DHT22;2737;52.386;9.980;2023-08-24T03:28:06;15.90;99.90
5429;DHT22;2737;52.386;9.980;2023-08-24T03:30:34;15.90;99.90
5429;DHT22;2737;52.386;9.980;2023-08-24T03:33:02;15.90;99.90
5429;DHT22;2737;52.386;9.980;2023-08-24T03:35:30;15.90;99.90
5429;DHT22;2737;52.386;9.980;2023-08-24T03:37:58;15.90;99.90
5429;DHT22;2737;52.386;9.980;2023-08-24T03:40:25;15.90;99.90
5429;DHT22;2737;52.386;9.980;2023-08-24T03:42:53;15.90;99.90
5429;DHT22;2737;52.386;9.980;2023-08-24T03:45:20;15.80;99.90
5429;DHT22;2737;52.386;9.980;2023-08-24T03:47:48;15.80;99.90
5429;DHT22;2737;52.386;9.980;2023-08-24T03:50:15;15.70;99.90
5429;DHT22;2737;52.386;9.980;2023-08-24T03:52:42;15.70;99.90
5429;DHT22;2737;52.386;9.980;2023-08-24T03:55:09;15.70;99.90
5429;DHT22;2737;52.386;9.980;2023-08-24T03:57:36;15.70;99.90
5429;DHT22;2737;52.386;9.980;2023-08-24T04:00:07;15.60;99.90
5429;DHT22;2737;52.386;9.980;2023-08-24T04:02:37;15.60;99.90
5429;DHT22;2737;52.386;9.980;2023-08-24T04:05:04;15.60;99.90
5429;DHT22;2737;52.386;9.980;2023-08-24T04:07:31;15.60;99.90
5429;DHT22;2737;52.386;9.980;2023-08-24T04:09:59;15.60;99.90
5429;DHT22;2737;52.386;9.980;2023-08-24T04:12:26;15.60;99.90
5429;DHT22;2737;52.386;9.980;2023-08-24T04:14:53;15.60;99.90
5429;DHT22;2737;52.386;9.980;2023-08-24T04:17:21;15.60;99.90
5429;DHT22;2737;52.386;9.980;2023-08-24T04:19:48;15.60;99.90
5429;DHT22;2737;52.386;9.980;2023-08-24T04:22:15;15.50;99.90
5429;DHT22;2737;52.386;9.980;2023-08-24T04:24:42;15.40;99.90
5429;DHT22;2737;52.386;9.980;2023-08-24T04:27:09;15.30;99.90
5429;DHT22;2737;52.386;9.980;2023-08-24T04:29:37;15.30;99.90
5429;DHT22;2737;52.386;9.980;2023-08-24T04:32:04;15.20;99.90
5429;DHT22;2737;52.386;9.980;2023-08-24T04:34:33;15.20;99.90
5429;DHT22;2737;52.386;9.980;2023-08-24T04:37:00;15.20;99.90
5429;DHT22;2737;52.386;9.980;2023-08-24T04:39:28;15.20;99.90
5429;DHT22;2737;52.386;9.980;2023-08-24T04:41:56;15.20;99.90
5429;DHT22;2737;52.386;9.980;2023-08-24T04:44:23;15.20;99.90
5429;DHT22;2737;52.386;9.980;2023-08-24T04:46:50;15.30;99.90
5429;DHT22;2737;52.386;9.980;2023-08-24T04:49:17;15.20;99.90
5429;DHT22;2737;52.386;9.980;2023-08-24T04:51:45;15.20;99.90
5429;DHT22;2737;52.386;9.980;2023-08-24T04:54:12;15.20;99.90
5429;DHT22;2737;52.386;9.980;2023-08-24T04:56:39;15.20;99.90
5429;DHT22;2737;52.386;9.980;2023-08-24T04:59:06;15.30;99.90
5429;DHT22;2737;52.386;9.980;2023-08-24T05:01:34;15.40;99.90
5429;DHT22;2737;52.386;9.980;2023-08-24T05:04:01;15.50;99.90
5429;DHT22;2737;52.386;9.980;2023-08-24T05:06:28;15.50;99.90
5429;DHT22;2737;52.386;9.980;2023-08-24T05:08:56;15.60;99.90
5429;DHT22;2737;52.386;9.980;2023-08-24T05:11:26;15.70;99.90
5429;DHT22;2737;52.386;9.980;2023-08-24T05:13:54;15.70;99.90
5429;DHT22;2737;52.386;9.980;2023-08-24T05:16:22;15.80;99.90
5429;DHT22;2737;52.386;9.980;2023-08-24T05:18:49;15.90;99.90
5429;DHT22;2737;52.386;9.980;2023-08-24T05:21:17;15.90;99.90
5429;DHT22;2737;52.386;9.980;2023-08-24T05:23:44;16.00;99.90
5429;DHT22;2737;52.386;9.980;2023-08-24T05:26:12;16.10;99.90
5429;DHT22;2737;52.386;9.980;2023-08-24T05:28:41;16.20;99.90
5429;DHT22;2737;52.386;9.980;2023-08-24T05:31:08;16.20;99.90
5429;DHT22;2737;52.386;9.980;2023-08-24T05:33:35;16.30;99.90
5429;DHT22;2737;52.386;9.980;2023-08-24T05:36:02;16.30;99.90
5429;DHT22;2737;52.386;9.980;2023-08-24T05:38:29;16.40;99.90
5429;DHT22;2737;52.386;9.980;2023-08-24T05:40:56;16.40;99.90
5429;DHT22;2737;52.386;9.980;2023-08-24T05:43:24;16.40;99.90
5429;DHT22;2737;52.386;9.980;2023-08-24T05:45:52;16.50;99.90
5429;DHT22;2737;52.386;9.980;2023-08-24T05:48:19;16.60;99.90
5429;DHT22;2737;52.386;9.980;2023-08-24T05:50:46;16.60;99.90
5429;DHT22;2737;52.386;9.980;2023-08-24T05:53:13;16.60;99.90
5429;DHT22;2737;52.386;9.980;2023-08-24T05:55:40;16.60;99.90
5429;DHT22;2737;52.386;9.980;2023-08-24T05:58:08;16.70;99.90
5429;DHT22;2737;52.386;9.980;2023-08-24T06:00:36;16.70;99.90
5429;DHT22;2737;52.386;9.980;2023-08-24T06:03:04;16.80;99.90
5429;DHT22;2737;52.386;9.980;2023-08-24T06:05:31;16.80;99.90
5429;DHT22;2737;52.386;9.980;2023-08-24T06:07:58;16.70;99.90
5429;DHT22;2737;52.386;9.980;2023-08-24T06:10:25;16.70;99.90
5429;DHT22;2737;52.386;9.980;2023-08-24T06:12:53;16.80;99.90
5429;DHT22;2737;52.386;9.980;2023-08-24T06:15:20;16.90;99.90
5429;DHT22;2737;52.386;9.980;2023-08-24T06:17:51;17.00;99.90
5429;DHT22;2737;52.386;9.980;2023-08-24T06:20:18;17.00;99.90
5429;DHT22;2737;52.386;9.980;2023-08-24T06:22:46;17.10;99.90
5429;DHT22;2737;52.386;9.980;2023-08-24T06:25:13;17.10;99.90
5429;DHT22;2737;52.386;9.980;2023-08-24T06:27:40;17.20;99.90
5429;DHT22;2737;52.386;9.980;2023-08-24T06:30:07;17.30;99.90
5429;DHT22;2737;52.386;9.980;2023-08-24T06:32:35;17.30;99.90
5429;DHT22;2737;52.386;9.980;2023-08-24T06:35:04;17.30;99.90
5429;DHT22;2737;52.386;9.980;2023-08-24T06:37:32;17.30;99.90
5429;DHT22;2737;52.386;9.980;2023-08-24T06:40:00;17.30;99.90
5429;DHT22;2737;52.386;9.980;2023-08-24T06:42:28;17.40;99.90
5429;DHT22;2737;52.386;9.980;2023-08-24T06:44:55;17.40;99.90
5429;DHT22;2737;52.386;9.980;2023-08-24T06:47:22;17.40;99.90
5429;DHT22;2737;52.386;9.980;2023-08-24T06:49:50;17.50;99.90
5429;DHT22;2737;52.386;9.980;2023-08-24T06:52:19;17.60;99.90
5429;DHT22;2737;52.386;9.980;2023-08-24T06:54:46;17.70;99.90
5429;DHT22;2737;52.386;9.980;2023-08-24T06:57:14;17.80;99.90
5429;DHT22;2737;52.386;9.980;2023-08-24T06:59:41;17.80;99.90
5429;DHT22;2737;52.386;9.980;2023-08-24T07:02:08;17.90;99.90
5429;DHT22;2737;52.386;9.980;2023-08-24T07:04:35;18.00;99.90
5429;DHT22;2737;52.386;9.980;2023-08-24T07:07:04;18.00;99.90
5429;DHT22;2737;52.386;9.980;2023-08-24T07:09:32;18.10;99.90
5429;DHT22;2737;52.386;9.980;2023-08-24T07:12:02;18.30;99.90
5429;DHT22;2737;52.386;9.980;2023-08-24T07:14:32;18.60;99.90
5429;DHT22;2737;52.386;9.980;2023-08-24T07:16:59;18.90;99.90
5429;DHT22;2737;52.386;9.980;2023-08-24T07:19:26;19.10;99.90
5429;DHT22;2737;52.386;9.980;2023-08-24T07:21:53;19.40;99.90
5429;DHT22;2737;52.386;9.980;2023-08-24T07:24:20;19.70;99.90
5429;DHT22;2737;52.386;9.980;2023-08-24T07:26:53;19.90;99.90
5429;DHT22;2737;52.386;9.980;2023-08-24T07:29:20;20.00;99.90
5429;DHT22;2737;52.386;9.980;2023-08-24T07:31:47;20.00;99.90
5429;DHT22;2737;52.386;9.980;2023-08-24T07:34:14;19.90;99.90
5429;DHT22;2737;52.386;9.980;2023-08-24T07:36:42;19.90;99.90
5429;DHT22;2737;52.386;9.980;2023-08-24T07:39:10;20.00;99.90
5429;DHT22;2737;52.386;9.980;2023-08-24T07:41:37;20.10;99.90
5429;DHT22;2737;52.386;9.980;2023-08-24T07:44:06;20.30;99.90
5429;DHT22;2737;52.386;9.980;2023-08-24T07:46:33;20.40;99.90
5429;DHT22;2737;52.386;9.980;2023-08-24T07:49:00;20.60;99.90
5429;DHT22;2737;52.386;9.980;2023-08-24T07:51:27;20.50;99.90
5429;DHT22;2737;52.386;9.980;2023-08-24T07:53:55;20.50;99.90
5429;DHT22;2737;52.386;9.980;2023-08-24T07:56:22;20.50;99.90
5429;DHT22;2737;52.386;9.980;2023-08-24T07:58:49;20.50;99.90
5429;DHT22;2737;52.386;9.980;2023-08-24T08:01:18;20.40;99.90
5429;DHT22;2737;52.386;9.980;2023-08-24T08:03:45;20.60;99.90
5429;DHT22;2737;52.386;9.980;2023-08-24T08:06:12;20.70;99.90
5429;DHT22;2737;52.386;9.980;2023-08-24T08:08:39;20.80;99.90
5429;DHT22;2737;52.386;9.980;2023-08-24T08:11:06;21.00;99.90
5429;DHT22;2737;52.386;9.980;2023-08-24T08:13:33;21.20;99.90
5429;DHT22;2737;52.386;9.980;2023-08-24T08:16:04;21.40;99.90
5429;DHT22;2737;52.386;9.980;2023-08-24T08:18:33;21.70;99.90
5429;DHT22;2737;52.386;9.980;2023-08-24T08:21:01;21.80;99.90
5429;DHT22;2737;52.386;9.980;2023-08-24T08:23:29;22.00;99.90
5429;DHT22;2737;52.386;9.980;2023-08-24T08:25:56;22.20;99.90
5429;DHT22;2737;52.386;9.980;2023-08-24T08:28:23;22.40;99.90
5429;DHT22;2737;52.386;9.980;2023-08-24T08:30:50;22.40;99.90
5429;DHT22;2737;52.386;9.980;2023-08-24T08:33:17;22.60;99.90
5429;DHT22;2737;52.386;9.980;2023-08-24T08:35:46;22.80;99.90
5429;DHT22;2737;52.386;9.980;2023-08-24T08:38:13;22.90;99.90
5429;DHT22;2737;52.386;9.980;2023-08-24T08:40:40;23.00;99.90
5429;DHT22;2737;52.386;9.980;2023-08-24T08:43:07;23.10;99.90
5429;DHT22;2737;52.386;9.980;2023-08-24T08:45:35;23.20;99.90
5429;DHT22;2737;52.386;9.980;2023-08-24T08:48:02;23.30;99.90
5429;DHT22;2737;52.386;9.980;2023-08-24T08:50:32;23.40;99.90
5429;DHT22;2737;52.386;9.980;2023-08-24T08:53:02;23.50;99.90
5429;DHT22;2737;52.386;9.980;2023-08-24T08:55:31;23.60;99.90
5429;DHT22;2737;52.386;9.980;2023-08-24T08:57:58;23.60;99.90
5429;DHT22;2737;52.386;9.980;2023-08-24T09:00:29;23.80;99.90
5429;DHT22;2737;52.386;9.980;2023-08-24T09:02:58;23.80;99.90
5429;DHT22;2737;52.386;9.980;2023-08-24T09:05:26;23.80;99.90
5429;DHT22;2737;52.386;9.980;2023-08-24T09:07:54;23.80;99.90
5429;DHT22;2737;52.386;9.980;2023-08-24T09:10:23;23.90;99.90
5429;DHT22;2737;52.386;9.980;2023-08-24T09:12:50;23.60;99.90
5429;DHT22;2737;52.386;9.980;2023-08-24T09:15:24;23.60;99.90
5429;DHT22;2737;52.386;9.980;2023-08-24T09:17:52;23.70;99.90
5429;DHT22;2737;52.386;9.980;2023-08-24T09:20:20;23.80;99.90
5429;DHT22;2737;52.386;9.980;2023-08-24T09:22:47;23.80;99.90
5429;DHT22;2737;52.386;9.980;2023-08-24T09:25:14;23.90;99.90
5429;DHT22;2737;52.386;9.980;2023-08-24T09:27:42;23.90;99.90
5429;DHT22;2737;52.386;9.980;2023-08-24T09:30:10;24.00;99.90
5429;DHT22;2737;52.386;9.980;2023-08-24T09:32:38;23.80;99.90
5429;DHT22;2737;52.386;9.980;2023-08-24T09:35:08;24.10;99.90
5429;DHT22;2737;52.386;9.980;2023-08-24T09:37:36;24.10;99.90
5429;DHT22;2737;52.386;9.980;2023-08-24T09:40:05;24.20;99.90
5429;DHT22;2737;52.386;9.980;2023-08-24T09:42:37;24.20;99.90
5429;DHT22;2737;52.386;9.980;2023-08-24T09:45:07;24.10;99.90
5429;DHT22;2737;52.386;9.980;2023-08-24T09:47:35;24.00;99.90
5429;DHT22;2737;52.386;9.980;2023-08-24T09:50:03;23.80;99.90
5429;DHT22;2737;52.386;9.980;2023-08-24T09:52:32;23.80;99.90
5429;DHT22;2737;52.386;9.980;2023-08-24T09:55:03;23.90;99.90
5429;DHT22;2737;52.386;9.980;2023-08-24T09:57:36;24.10;99.90
5429;DHT22;2737;52.386;9.980;2023-08-24T10:00:07;24.20;99.90
5429;DHT22;2737;52.386;9.980;2023-08-24T10:02:39;24.30;99.90
5429;DHT22;2737;52.386;9.980;2023-08-24T10:05:09;24.30;99.90
5429;DHT22;2737;52.386;9.980;2023-08-24T10:07:43;24.30;99.90
5429;DHT22;2737;52.386;9.980;2023-08-24T10:10:11;24.30;99.90
5429;DHT22;2737;52.386;9.980;2023-08-24T10:12:46;24.40;99.90
5429;DHT22;2737;52.386;9.980;2023-08-24T10:15:17;24.50;99.90
5429;DHT22;2737;52.386;9.980;2023-08-24T10:17:45;24.60;99.90
5429;DHT22;2737;52.386;9.980;2023-08-24T10:20:12;24.70;99.90
5429;DHT22;2737;52.386;9.980;2023-08-24T10:22:39;24.80;99.90
5429;DHT22;2737;52.386;9.980;2023-08-24T10:25:09;24.80;99.90
5429;DHT22;2737;52.386;9.980;2023-08-24T10:27:37;24.80;99.90
5429;DHT22;2737;52.386;9.980;2023-08-24T10:30:10;24.80;99.90
5429;DHT22;2737;52.386;9.980;2023-08-24T10:32:40;24.90;99.90
5429;DHT22;2737;52.386;9.980;2023-08-24T10:35:08;25.00;99.90
5429;DHT22;2737;52.386;9.980;2023-08-24T10:37:35;25.00;99.90
5429;DHT22;2737;52.386;9.980;2023-08-24T10:40:03;25.00;99.90
5429;DHT22;2737;52.386;9.980;2023-08-24T10:42:43;25.00;99.90
5429;DHT22;2737;52.386;9.980;2023-08-24T10:45:13;25.10;99.90
5429;DHT22;2737;52.386;9.980;2023-08-24T10:47:52;25.00;99.90
5429;DHT22;2737;52.386;9.980;2023-08-24T10:50:21;25.10;99.90
5429;DHT22;2737;52.386;9.980;2023-08-24T10:52:48;25.10;99.90
5429;DHT22;2737;52.386;9.980;2023-08-24T10:55:23;25.20;99.90
5429;DHT22;2737;52.386;9.980;2023-08-24T10:57:57;25.20;99.90
5429;DHT22;2737;52.386;9.980;2023-08-24T11:00:26;25.30;99.90
5429;DHT22;2737;52.386;9.980;2023-08-24T11:02:55;25.40;99.90
5429;DHT22;2737;52.386;9.980;2023-08-24T11:05:24;25.50;99.90
5429;DHT22;2737;52.386;9.980;2023-08-24T11:07:55;25.60;99.90
5429;DHT22;2737;52.386;9.980;2023-08-24T11:10:23;25.80;99.90
5429;DHT22;2737;52.386;9.980;2023-08-24T11:13:11;25.80;99.90
5429;DHT22;2737;52.386;9.980;2023-08-24T11:15:40;25.90;99.90
5429;DHT22;2737;52.386;9.980;2023-08-24T11:18:29;25.90;99.90
5429;DHT22;2737;52.386;9.980;2023-08-24T11:20:59;25.90;99.90
5429;DHT22;2737;52.386;9.980;2023-08-24T11:23:28;25.90;99.90
5429;DHT22;2737;52.386;9.980;2023-08-24T11:25:56;26.00;99.90
5429;DHT22;2737;52.386;9.980;2023-08-24T11:28:25;26.00;99.90
5429;DHT22;2737;52.386;9.980;2023-08-24T11:30:53;25.90;99.90
5429;DHT22;2737;52.386;9.980;2023-08-24T11:33:31;26.00;99.90
5429;DHT22;2737;52.386;9.980;2023-08-24T11:35:59;26.10;99.90
5429;DHT22;2737;52.386;9.980;2023-08-24T11:38:35;26.10;99.90
5429;DHT22;2737;52.386;9.980;2023-08-24T11:41:11;26.20;99.90
5429;DHT22;2737;52.386;9.980;2023-08-24T11:43:38;26.20;99.90
5429;DHT22;2737;52.386;9.980;2023-08-24T11:46:05;26.30;99.90
5429;DHT22;2737;52.386;9.980;2023-08-24T11:48:34;26.40;99.90
5429;DHT22;2737;52.386;9.980;2023-08-24T11:51:03;26.40;99.90
5429;DHT22;2737;52.386;9.980;2023-08-24T11:53:30;26.30;99.90
5429;DHT22;2737;52.386;9.980;2023-08-24T11:55:58;26.40;99.90
5429;DHT22;2737;52.386;9.980;2023-08-24T11:58:27;26.50;99.90
5429;DHT22;2737;52.386;9.980;2023-08-24T12:00:54;26.40;99.90
5429;DHT22;2737;52.386;9.980;2023-08-24T12:03:22;26.50;99.90
5429;DHT22;2737;52.386;9.980;2023-08-24T12:05:50;26.50;99.90
5429;DHT22;2737;52.386;9.980;2023-08-24T12:08:17;26.50;99.90
5429;DHT22;2737;52.386;9.980;2023-08-24T12:10:44;26.60;99.90
5429;DHT22;2737;52.386;9.980;2023-08-24T12:13:12;26.50;99.90
5429;DHT22;2737;52.386;9.980;2023-08-24T12:15:40;26.60;99.90
5429;DHT22;2737;52.386;9.980;2023-08-24T12:18:09;26.60;99.90
5429;DHT22;2737;52.386;9.980;2023-08-24T12:20:36;26.70;99.90
5429;DHT22;2737;52.386;9.980;2023-08-24T12:23:06;26.70;99.90
5429;DHT22;2737;52.386;9.980;2023-08-24T12:25:36;26.70;99.90
5429;DHT22;2737;52.386;9.980;2023-08-24T12:28:11;26.70;99.90
5429;DHT22;2737;52.386;9.980;2023-08-24T12:30:45;26.70;99.90
5429;DHT22;2737;52.386;9.980;2023-08-24T12:33:22;26.70;99.90
5429;DHT22;2737;52.386;9.980;2023-08-24T12:35:50;26.70;99.90
5429;DHT22;2737;52.386;9.980;2023-08-24T12:38:18;26.70;99.90
5429;DHT22;2737;52.386;9.980;2023-08-24T12:40:45;26.70;99.90
5429;DHT22;2737;52.386;9.980;2023-08-24T12:43:12;26.80;99.90
5429;DHT22;2737;52.386;9.980;2023-08-24T12:45:39;26.80;99.90
5429;DHT22;2737;52.386;9.980;2023-08-24T12:48:07;26.70;99.90
5429;DHT22;2737;52.386;9.980;2023-08-24T12:50:34;26.80;99.90
5429;DHT22;2737;52.386;9.980;2023-08-24T12:53:01;26.80;99.90
5429;DHT22;2737;52.386;9.980;2023-08-24T12:55:30;26.70;99.90
5429;DHT22;2737;52.386;9.980;2023-08-24T12:57:57;26.60;99.90
5429;DHT22;2737;52.386;9.980;2023-08-24T13:00:24;26.60;99.90
5429;DHT22;2737;52.386;9.980;2023-08-24T13:02:52;26.60;99.90
5429;DHT22;2737;52.386;9.980;2023-08-24T13:05:19;26.60;99.90
5429;DHT22;2737;52.386;9.980;2023-08-24T13:07:46;26.70;99.90
5429;DHT22;2737;52.386;9.980;2023-08-24T13:10:13;26.70;99.90
5429;DHT22;2737;52.386;9.980;2023-08-24T13:12:42;26.80;99.90
5429;DHT22;2737;52.386;9.980;2023-08-24T13:15:10;26.80;99.90
5429;DHT22;2737;52.386;9.980;2023-08-24T13:17:37;26.80;99.90
5429;DHT22;2737;52.386;9.980;2023-08-24T13:20:06;26.90;99.90
5429;DHT22;2737;52.386;9.980;2023-08-24T13:22:33;26.90;99.90
5429;DHT22;2737;52.386;9.980;2023-08-24T13:25:00;26.90;99.90
5429;DHT22;2737;52.386;9.980;2023-08-24T13:27:27;27.00;99.90
5429;DHT22;2737;52.386;9.980;2023-08-24T13:29:58;27.00;99.90
5429;DHT22;2737;52.386;9.980;2023-08-24T13:32:26;26.90;99.90
5429;DHT22;2737;52.386;9.980;2023-08-24T13:34:53;26.90;99.90
5429;DHT22;2737;52.386;9.980;2023-08-24T13:37:22;27.00;99.90
5429;DHT22;2737;52.386;9.980;2023-08-24T13:39:49;27.10;99.90
5429;DHT22;2737;52.386;9.980;2023-08-24T13:42:16;27.10;99.90
5429;DHT22;2737;52.386;9.980;2023-08-24T13:44:44;27.20;99.90
5429;DHT22;2737;52.386;9.980;2023-08-24T13:47:12;27.30;99.90
5429;DHT22;2737;52.386;9.980;2023-08-24T13:49:39;27.20;99.90
5429;DHT22;2737;52.386;9.980;2023-08-24T13:52:07;27.20;99.90
5429;DHT22;2737;52.386;9.980;2023-08-24T13:54:34;27.20;99.90
5429;DHT22;2737;52.386;9.980;2023-08-24T13:57:01;27.20;99.90
5429;DHT22;2737;52.386;9.980;2023-08-24T13:59:29;27.20;99.90
5429;DHT22;2737;52.386;9.980;2023-08-24T14:01:56;27.20;99.90
5429;DHT22;2737;52.386;9.980;2023-08-24T14:04:24;27.20;99.90
5429;DHT22;2737;52.386;9.980;2023-08-24T14:06:51;27.20;99.90
5429;DHT22;2737;52.386;9.980;2023-08-24T14:09:19;27.20;99.90
5429;DHT22;2737;52.386;9.980;2023-08-24T14:11:46;27.30;99.90
5429;DHT22;2737;52.386;9.980;2023-08-24T14:14:13;27.30;99.90
5429;DHT22;2737;52.386;9.980;2023-08-24T14:16:40;27.20;99.90
5429;DHT22;2737;52.386;9.980;2023-08-24T14:19:07;27.20;99.90
5429;DHT22;2737;52.386;9.980;2023-08-24T14:21:36;27.20;99.90
5429;DHT22;2737;52.386;9.980;2023-08-24T14:24:03;27.20;99.90
5429;DHT22;2737;52.386;9.980;2023-08-24T14:26:30;27.20;99.90
5429;DHT22;2737;52.386;9.980;2023-08-24T14:28:58;27.30;99.90
5429;DHT22;2737;52.386;9.980;2023-08-24T14:31:28;27.30;99.90
5429;DHT22;2737;52.386;9.980;2023-08-24T14:33:55;27.30;99.90
5429;DHT22;2737;52.386;9.980;2023-08-24T14:36:23;27.30;99.90
5429;DHT22;2737;52.386;9.980;2023-08-24T14:38:51;27.30;99.90
5429;DHT22;2737;52.386;9.980;2023-08-24T14:41:19;27.40;99.90
5429;DHT22;2737;52.386;9.980;2023-08-24T14:43:46;27.40;99.90
5429;DHT22;2737;52.386;9.980;2023-08-24T14:46:13;27.40;99.90
5429;DHT22;2737;52.386;9.980;2023-08-24T14:48:40;27.50;99.90
5429;DHT22;2737;52.386;9.980;2023-08-24T14:51:07;27.50;99.90
5429;DHT22;2737;52.386;9.980;2023-08-24T14:53:34;27.50;99.90
5429;DHT22;2737;52.386;9.980;2023-08-24T14:56:04;27.60;99.90
5429;DHT22;2737;52.386;9.980;2023-08-24T14:58:31;27.50;99.90
5429;DHT22;2737;52.386;9.980;2023-08-24T15:00:58;27.60;99.90
5429;DHT22;2737;52.386;9.980;2023-08-24T15:03:25;27.60;99.90
5429;DHT22;2737;52.386;9.980;2023-08-24T15:05:59;27.60;99.90
5429;DHT22;2737;52.386;9.980;2023-08-24T15:08:27;27.60;99.90
5429;DHT22;2737;52.386;9.980;2023-08-24T15:10:55;27.70;99.90
5429;DHT22;2737;52.386;9.980;2023-08-24T15:13:26;27.70;99.90
5429;DHT22;2737;52.386;9.980;2023-08-24T15:15:54;27.70;99.90
5429;DHT22;2737;52.386;9.980;2023-08-24T15:18:22;27.70;99.90
5429;DHT22;2737;52.386;9.980;2023-08-24T15:20:49;27.70;99.90
5429;DHT22;2737;52.386;9.980;2023-08-24T15:23:24;27.70;99.90
5429;DHT22;2737;52.386;9.980;2023-08-24T15:25:53;27.80;99.90
5429;DHT22;2737;52.386;9.980;2023-08-24T15:28:20;27.70;99.90
5429;DHT22;2737;52.386;9.980;2023-08-24T15:30:48;27.70;99.90
5429;DHT22;2737;52.386;9.980;2023-08-24T15:33:15;27.70;99.90
5429;DHT22;2737;52.386;9.980;2023-08-24T15:35:43;27.60;99.90
5429;DHT22;2737;52.386;9.980;2023-08-24T15:38:10;27.60;99.90
5429;DHT22;2737;52.386;9.980;2023-08-24T15:40:38;27.60;99.90
5429;DHT22;2737;52.386;9.980;2023-08-24T15:43:06;27.60;99.90
5429;DHT22;2737;52.386;9.980;2023-08-24T15:45:33;27.60;99.90
5429;DHT22;2737;52.386;9.980;2023-08-24T15:48:02;27.60;99.90
5429;DHT22;2737;52.386;9.980;2023-08-24T15:50:29;27.60;99.90
5429;DHT22;2737;52.386;9.980;2023-08-24T15:52:57;27.60;99.90
5429;DHT22;2737;52.386;9.980;2023-08-24T15:55:28;27.60;99.90
5429;DHT22;2737;52.386;9.980;2023-08-24T15:57:58;27.50;99.90
5429;DHT22;2737;52.386;9.980;2023-08-24T16:00:25;27.50;99.90
5429;DHT22;2737;52.386;9.980;2023-08-24T16:02:52;27.50;99.90
5429;DHT22;2737;52.386;9.980;2023-08-24T16:05:20;27.50;99.90
5429;DHT22;2737;52.386;9.980;2023-08-24T16:07:47;27.50;99.90
5429;DHT22;2737;52.386;9.980;2023-08-24T16:10:17;27.40;99.90
5429;DHT22;2737;52.386;9.980;2023-08-24T16:12:44;27.30;99.90
5429;DHT22;2737;52.386;9.980;2023-08-24T16:15:11;27.20;99.90
5429;DHT22;2737;52.386;9.980;2023-08-24T16:17:38;27.20;99.90
5429;DHT22;2737;52.386;9.980;2023-08-24T16:20:06;27.10;99.90
5429;DHT22;2737;52.386;9.980;2023-08-24T16:22:36;27.10;99.90
5429;DHT22;2737;52.386;9.980;2023-08-24T16:25:04;27.00;99.90
5429;DHT22;2737;52.386;9.980;2023-08-24T16:27:32;27.00;99.90
5429;DHT22;2737;52.386;9.980;2023-08-24T16:29:59;27.00;99.90
5429;DHT22;2737;52.386;9.980;2023-08-24T16:32:26;26.90;99.90